createdAt,value
2023-04-14T00:02:11.764Z,3.67
2023-04-14T00:04:38.510Z,4.25
2023-04-14T00:07:08.234Z,4.03
2023-04-14T00:09:34.974Z,3.50
2023-04-14T00:12:01.740Z,3.55
2023-04-14T00:14:28.258Z,3.55
2023-04-14T00:16:54.932Z,3.15
2023-04-14T00:19:22.381Z,3.45
2023-04-14T00:21:48.875Z,5.00
2023-04-14T00:24:15.776Z,4.70
2023-04-14T00:26:42.421Z,5.20
2023-04-14T00:29:10.061Z,4.38
2023-04-14T00:31:38.056Z,5.32
2023-04-14T00:34:05.017Z,4.82
2023-04-14T00:36:32.167Z,4.07
2023-04-14T00:39:00.375Z,5.00
2023-04-14T00:41:27.836Z,5.25
2023-04-14T00:43:54.613Z,4.80
2023-04-14T00:46:21.756Z,3.65
2023-04-14T00:48:48.812Z,4.30
2023-04-14T00:51:16.064Z,4.05
2023-04-14T00:53:42.654Z,3.90
2023-04-14T00:56:09.335Z,3.67
2023-04-14T00:58:37.076Z,4.18
2023-04-14T01:01:05.104Z,4.47
2023-04-14T01:03:32.826Z,3.33
2023-04-14T01:05:59.608Z,3.72
2023-04-14T01:08:27.147Z,3.63
2023-04-14T01:11:12.353Z,3.45
2023-04-14T01:13:38.779Z,2.33
2023-04-14T01:16:09.747Z,3.67
2023-04-14T01:18:45.788Z,3.45
2023-04-14T01:21:14.276Z,3.42
2023-04-14T01:23:59.430Z,3.58
2023-04-14T01:26:30.196Z,3.97
2023-04-14T01:29:00.645Z,3.67
2023-04-14T01:31:38.697Z,3.65
2023-04-14T01:34:31.619Z,3.70
2023-04-14T01:37:02.277Z,3.78
2023-04-14T01:39:33.161Z,3.88
2023-04-14T01:42:00.038Z,3.67
2023-04-14T01:44:27.542Z,3.40
2023-04-14T01:46:57.234Z,3.90
2023-04-14T01:49:24.436Z,3.33
2023-04-14T01:51:51.687Z,3.80
2023-04-14T01:54:18.827Z,3.75
2023-04-14T01:56:46.570Z,3.90
2023-04-14T01:59:14.387Z,3.58
2023-04-14T02:01:41.195Z,3.92
2023-04-14T02:04:08.680Z,4.13
2023-04-14T02:06:36.227Z,3.85
2023-04-14T02:09:05.556Z,4.00
2023-04-14T02:11:32.894Z,4.43
2023-04-14T02:14:00.591Z,4.40
2023-04-14T02:16:28.526Z,4.32
2023-04-14T02:18:55.207Z,4.43
2023-04-14T02:21:24.625Z,6.13
2023-04-14T02:23:51.297Z,5.90
2023-04-14T02:26:21.796Z,6.88
2023-04-14T02:28:54.066Z,6.03
2023-04-14T02:31:23.290Z,9.48
2023-04-14T02:33:54.135Z,10.65
2023-04-14T02:36:23.696Z,8.80
2023-04-14T02:38:56.110Z,8.15
2023-04-14T02:41:24.996Z,7.55
2023-04-14T02:44:01.699Z,7.88
2023-04-14T02:46:32.070Z,7.53
2023-04-14T02:49:00.800Z,6.57
2023-04-14T02:51:28.221Z,5.95
2023-04-14T02:53:55.177Z,5.25
2023-04-14T02:56:38.876Z,4.50
2023-04-14T02:59:06.088Z,5.25
2023-04-14T03:01:33.800Z,5.00
2023-04-14T03:04:01.950Z,5.28
2023-04-14T03:06:32.019Z,5.93
2023-04-14T03:09:00.177Z,6.00
2023-04-14T03:11:28.772Z,5.43
2023-04-14T03:13:56.253Z,5.30
2023-04-14T03:16:24.024Z,5.28
2023-04-14T03:18:51.544Z,4.82
2023-04-14T03:21:19.311Z,4.95
2023-04-14T03:23:46.582Z,4.90
2023-04-14T03:26:14.983Z,4.63
2023-04-14T03:28:42.669Z,4.85
2023-04-14T03:31:11.322Z,5.07
2023-04-14T03:33:49.020Z,4.70
2023-04-14T03:36:17.272Z,5.10
2023-04-14T03:38:45.850Z,4.68
2023-04-14T03:41:13.939Z,5.00
2023-04-14T03:43:41.228Z,4.82
2023-04-14T03:46:12.031Z,5.00
2023-04-14T03:48:44.268Z,5.50
2023-04-14T03:51:14.151Z,5.35
2023-04-14T03:53:42.180Z,5.68
2023-04-14T03:56:11.035Z,6.30
2023-04-14T03:58:37.623Z,6.22
2023-04-14T04:01:05.411Z,5.70
2023-04-14T04:03:34.208Z,5.53
2023-04-14T04:06:02.901Z,5.32
2023-04-14T04:08:31.258Z,5.82
2023-04-14T04:10:58.059Z,5.68
2023-04-14T04:13:25.290Z,6.18
2023-04-14T04:15:52.460Z,6.40
2023-04-14T04:18:20.779Z,6.20
2023-04-14T04:20:47.923Z,6.10
2023-04-14T04:23:17.160Z,6.43
2023-04-14T04:25:44.381Z,6.22
2023-04-14T04:28:30.050Z,6.30
2023-04-14T04:30:59.265Z,6.50
2023-04-14T04:33:26.588Z,6.63
2023-04-14T04:35:54.846Z,6.30
2023-04-14T04:38:24.041Z,6.25
2023-04-14T04:40:51.695Z,6.90
2023-04-14T04:43:22.950Z,6.90
2023-04-14T04:46:16.063Z,6.43
2023-04-14T04:48:42.784Z,6.10
2023-04-14T04:51:09.666Z,6.32
2023-04-14T04:53:36.266Z,6.15
2023-04-14T04:56:04.046Z,6.00
2023-04-14T04:58:30.955Z,5.68
2023-04-14T05:00:57.714Z,5.82
2023-04-14T05:03:24.336Z,5.80
2023-04-14T05:05:50.919Z,6.13
2023-04-14T05:08:17.538Z,5.43
2023-04-14T05:10:44.236Z,5.90
2023-04-14T05:13:10.873Z,7.03
2023-04-14T05:15:37.468Z,6.10
2023-04-14T05:18:03.972Z,6.28
2023-04-14T05:20:30.690Z,6.68
2023-04-14T05:22:57.347Z,6.18
2023-04-14T05:25:26.412Z,6.20
2023-04-14T05:27:53.033Z,5.97
2023-04-14T05:30:19.778Z,6.03
2023-04-14T05:32:46.296Z,6.38
2023-04-14T05:35:12.990Z,5.82
2023-04-14T05:37:39.792Z,6.03
2023-04-14T05:40:06.524Z,6.55
2023-04-14T05:42:33.213Z,7.03
2023-04-14T05:44:59.804Z,7.68
2023-04-14T05:47:26.522Z,7.20
2023-04-14T05:49:53.020Z,7.20
2023-04-14T05:52:19.631Z,7.22
2023-04-14T05:54:46.250Z,6.35
2023-04-14T05:57:12.791Z,7.07
2023-04-14T05:59:39.238Z,8.15
2023-04-14T06:02:07.354Z,8.45
2023-04-14T06:04:34.410Z,8.23
2023-04-14T06:07:02.740Z,7.97
2023-04-14T06:09:29.264Z,8.20
2023-04-14T06:11:56.769Z,8.43
2023-04-14T06:14:23.447Z,7.97
2023-04-14T06:16:51.106Z,7.78
2023-04-14T06:19:18.981Z,7.75
2023-04-14T06:21:47.051Z,7.60
2023-04-14T06:24:13.531Z,7.32
2023-04-14T06:26:40.163Z,8.00
2023-04-14T06:29:08.395Z,8.57
2023-04-14T06:31:34.921Z,8.30
2023-04-14T06:34:02.351Z,8.23
2023-04-14T06:36:28.982Z,7.53
2023-04-14T06:38:56.685Z,8.63
2023-04-14T06:41:23.266Z,8.73
2023-04-14T06:43:49.842Z,9.43
2023-04-14T06:46:17.467Z,9.00
2023-04-14T06:48:44.216Z,10.00
2023-04-14T06:51:12.397Z,8.80
2023-04-14T06:53:39.099Z,9.23
2023-04-14T06:56:06.640Z,8.30
2023-04-14T06:58:34.036Z,9.43
2023-04-14T07:01:01.737Z,9.68
2023-04-14T07:03:31.362Z,9.38
2023-04-14T07:06:08.714Z,9.50
2023-04-14T07:08:36.401Z,9.70
2023-04-14T07:11:06.751Z,10.25
2023-04-14T07:13:35.798Z,11.10
2023-04-14T07:16:02.882Z,10.27
2023-04-14T07:18:30.255Z,12.00
2023-04-14T07:20:57.735Z,12.65
2023-04-14T07:23:24.207Z,12.85
2023-04-14T07:25:52.713Z,13.77
2023-04-14T07:28:21.723Z,15.35
2023-04-14T07:30:49.502Z,14.30
2023-04-14T07:33:19.346Z,13.25
2023-04-14T07:36:00.589Z,12.70
2023-04-14T07:38:29.631Z,12.65
2023-04-14T07:40:56.307Z,12.75
2023-04-14T07:43:26.368Z,13.30
2023-04-14T07:45:53.835Z,14.52
2023-04-14T07:48:21.897Z,14.60
2023-04-14T07:50:49.918Z,15.23
2023-04-14T07:53:18.329Z,14.18
2023-04-14T07:55:44.813Z,14.95
2023-04-14T07:58:15.305Z,15.40
2023-04-14T08:00:43.570Z,14.73
2023-04-14T08:03:14.797Z,15.25
2023-04-14T08:05:42.287Z,14.65
2023-04-14T08:08:10.144Z,14.98
2023-04-14T08:10:39.016Z,14.25
2023-04-14T08:13:05.534Z,14.65
2023-04-14T08:15:32.960Z,14.95
2023-04-14T08:17:59.745Z,15.35
2023-04-14T08:20:26.891Z,15.52
2023-04-14T08:22:53.333Z,16.13
2023-04-14T08:25:20.838Z,15.27
2023-04-14T08:27:47.334Z,15.25
2023-04-14T08:30:14.240Z,14.52
2023-04-14T08:32:41.809Z,14.95
2023-04-14T08:35:36.092Z,15.15
2023-04-14T08:37:56.069Z,14.23
2023-04-14T08:40:23.794Z,14.25
2023-04-14T08:42:50.500Z,13.77
2023-04-14T08:45:19.217Z,14.50
2023-04-14T08:47:48.297Z,15.10
2023-04-14T08:50:16.605Z,14.27
2023-04-14T08:52:45.231Z,14.30
2023-04-14T08:55:12.773Z,14.10
2023-04-14T08:57:40.371Z,13.98
2023-04-14T09:00:07.307Z,14.65
2023-04-14T09:02:34.557Z,15.05
2023-04-14T09:05:01.932Z,13.15
2023-04-14T09:07:30.144Z,12.80
2023-04-14T09:10:00.747Z,13.30
2023-04-14T09:12:27.524Z,12.90
2023-04-14T09:14:57.136Z,12.23
2023-04-14T09:17:31.446Z,11.15
2023-04-14T09:20:36.756Z,11.90
2023-04-14T09:22:47.069Z,11.52
2023-04-14T09:25:14.724Z,13.50
2023-04-14T09:27:42.943Z,11.63
2023-04-14T09:30:09.602Z,11.25
2023-04-14T09:32:38.550Z,10.82
2023-04-14T09:35:08.172Z,11.90
2023-04-14T09:37:44.619Z,10.75
2023-04-14T09:40:12.136Z,11.18
2023-04-14T09:42:42.881Z,11.07
2023-04-14T09:45:09.619Z,10.85
2023-04-14T09:47:38.417Z,9.73
2023-04-14T09:50:05.283Z,9.45
2023-04-14T09:52:41.339Z,9.27
2023-04-14T09:55:15.632Z,9.05
2023-04-14T09:57:44.371Z,8.45
2023-04-14T10:00:17.923Z,7.43
2023-04-14T10:02:49.542Z,6.82
2023-04-14T10:05:18.934Z,7.00
2023-04-14T10:07:46.147Z,6.10
2023-04-14T10:10:15.984Z,5.60
2023-04-14T10:12:45.637Z,5.57
2023-04-14T10:15:13.590Z,6.05
2023-04-14T10:17:40.424Z,5.97
2023-04-14T10:20:07.172Z,5.22
2023-04-14T10:22:58.740Z,5.30
2023-04-14T10:25:27.762Z,5.32
2023-04-14T10:27:54.424Z,4.97
2023-04-14T10:30:22.123Z,4.88
2023-04-14T10:32:49.815Z,4.82
2023-04-14T10:35:18.608Z,4.63
2023-04-14T10:37:55.165Z,5.07
2023-04-14T10:40:23.198Z,4.80
2023-04-14T10:42:56.692Z,4.78
2023-04-14T10:45:23.467Z,4.47
2023-04-14T10:47:51.136Z,4.55
2023-04-14T10:50:31.475Z,4.40
2023-04-14T10:52:58.835Z,5.03
2023-04-14T10:55:26.767Z,4.70
2023-04-14T10:58:03.062Z,5.78
2023-04-14T11:00:32.780Z,4.50
2023-04-14T11:03:03.350Z,4.70
2023-04-14T11:05:37.103Z,4.35
2023-04-14T11:08:17.323Z,3.72
2023-04-14T11:10:49.526Z,4.03
2023-04-14T11:13:17.787Z,2.60
2023-04-14T11:15:47.236Z,2.50
2023-04-14T11:18:20.491Z,2.53
2023-04-14T11:20:51.509Z,2.97
2023-04-14T11:23:18.033Z,3.33
2023-04-14T11:25:45.768Z,3.55
2023-04-14T11:28:12.256Z,2.97
2023-04-14T11:30:42.328Z,2.83
2023-04-14T11:33:10.817Z,2.80
2023-04-14T11:35:37.810Z,3.17
2023-04-14T11:38:04.354Z,2.90
2023-04-14T11:40:31.739Z,2.58
2023-04-14T11:42:58.790Z,2.47
2023-04-14T11:45:28.979Z,2.67
2023-04-14T11:47:58.671Z,2.90
2023-04-14T11:50:25.485Z,2.45
2023-04-14T11:52:55.960Z,3.00
2023-04-14T11:55:25.109Z,3.00
2023-04-14T11:57:52.775Z,2.85
2023-04-14T12:00:19.438Z,3.20
2023-04-14T12:02:47.552Z,3.30
2023-04-14T12:05:19.848Z,3.40
2023-04-14T12:07:48.095Z,3.33
2023-04-14T12:10:14.680Z,3.42
2023-04-14T12:12:43.380Z,3.50
2023-04-14T12:15:10.216Z,3.08
2023-04-14T12:17:38.475Z,3.20
2023-04-14T12:20:06.099Z,2.80
2023-04-14T12:22:33.843Z,2.70
2023-04-14T12:25:09.645Z,2.42
2023-04-14T12:27:37.551Z,2.63
2023-04-14T12:30:06.381Z,3.17
2023-04-14T12:32:44.115Z,3.10
2023-04-14T12:35:12.793Z,3.50
2023-04-14T12:37:41.361Z,3.58
2023-04-14T12:40:08.729Z,3.70
2023-04-14T12:42:47.434Z,4.32
2023-04-14T12:45:14.546Z,5.13
2023-04-14T12:47:41.212Z,11.18
2023-04-14T12:50:23.819Z,5.45
2023-04-14T12:52:50.576Z,5.43
2023-04-14T12:55:22.104Z,5.68
2023-04-14T12:57:51.218Z,6.03
2023-04-14T13:00:17.786Z,3.55
2023-04-14T13:02:46.954Z,5.95
2023-04-14T13:05:14.902Z,3.60
2023-04-14T13:07:42.786Z,3.40
2023-04-14T13:10:09.823Z,6.05
2023-04-14T13:12:38.746Z,3.78
2023-04-14T13:15:05.705Z,3.75
2023-04-14T13:17:33.628Z,3.55
2023-04-14T13:20:01.639Z,3.80
2023-04-14T13:22:28.391Z,3.63
2023-04-14T13:24:56.734Z,3.58
2023-04-14T13:27:23.953Z,5.05
2023-04-14T13:29:50.710Z,4.55
2023-04-14T13:32:17.425Z,3.83
2023-04-14T13:34:44.096Z,3.53
2023-04-14T13:37:12.011Z,3.35
2023-04-14T13:39:38.461Z,3.47
2023-04-14T13:42:05.874Z,2.70
2023-04-14T13:44:33.690Z,2.35
2023-04-14T13:47:00.354Z,3.03
2023-04-14T13:49:27.332Z,3.70
2023-04-14T13:51:54.354Z,3.40
2023-04-14T13:54:20.826Z,2.67
2023-04-14T13:56:48.716Z,3.53
2023-04-14T13:59:18.489Z,2.95
2023-04-14T14:01:45.588Z,3.97
2023-04-14T14:04:12.209Z,3.40
2023-04-14T14:06:39.042Z,3.22
2023-04-14T14:09:06.682Z,3.47
2023-04-14T14:11:33.578Z,3.90
2023-04-14T14:14:00.307Z,4.18
2023-04-14T14:18:57.244Z,4.22
2023-04-14T14:21:23.676Z,4.05
2023-04-14T14:23:50.285Z,3.63
2023-04-14T14:26:17.005Z,4.28
2023-04-14T14:28:44.525Z,4.57
2023-04-14T14:31:11.349Z,3.90
2023-04-14T14:33:38.401Z,3.88
2023-04-14T14:36:05.482Z,4.60
2023-04-14T14:38:32.578Z,3.95
2023-04-14T14:40:59.479Z,3.78
2023-04-14T14:43:26.068Z,3.90
2023-04-14T14:45:52.505Z,3.58
2023-04-14T14:48:19.320Z,3.30
2023-04-14T14:50:46.039Z,3.15
2023-04-14T14:53:12.474Z,2.45
2023-04-14T14:55:38.889Z,2.80
2023-04-14T14:58:08.961Z,2.78
2023-04-14T15:00:36.265Z,2.63
2023-04-14T15:03:02.817Z,2.47
2023-04-14T15:05:29.504Z,2.83
2023-04-14T15:07:55.971Z,2.80
2023-04-14T15:10:22.490Z,2.65
2023-04-14T15:12:49.897Z,2.90
2023-04-14T15:15:19.053Z,2.58
2023-04-14T15:17:46.490Z,2.33
2023-04-14T15:20:13.759Z,2.47
2023-04-14T15:22:40.543Z,4.22
2023-04-14T15:25:09.119Z,3.20
2023-04-14T15:27:36.140Z,2.95
2023-04-14T15:30:03.392Z,2.20
2023-04-14T15:32:29.966Z,2.50
2023-04-14T15:34:57.276Z,4.90
2023-04-14T15:37:23.736Z,5.15
2023-04-14T15:39:50.719Z,5.72
2023-04-14T15:42:17.343Z,5.50
2023-04-14T15:44:43.937Z,2.40
2023-04-14T15:47:10.470Z,2.88
2023-04-14T15:49:39.589Z,2.95
2023-04-14T15:52:06.037Z,3.50
2023-04-14T15:54:33.701Z,3.30
2023-04-14T15:57:00.496Z,2.75
2023-04-14T15:59:27.650Z,3.33
2023-04-14T16:01:54.623Z,3.47
2023-04-14T16:04:21.251Z,3.03
2023-04-14T16:06:48.843Z,3.17
2023-04-14T16:09:15.451Z,3.70
2023-04-14T16:11:42.004Z,3.85
2023-04-14T16:14:09.664Z,2.80
2023-04-14T16:16:36.815Z,2.65
2023-04-14T16:19:03.499Z,3.08
2023-04-14T16:21:30.305Z,2.80
2023-04-14T16:23:56.817Z,2.20
2023-04-14T16:26:25.188Z,3.00
2023-04-14T16:28:52.524Z,3.22
2023-04-14T16:31:19.235Z,3.03
2023-04-14T16:33:47.144Z,2.88
2023-04-14T16:36:13.656Z,5.00
2023-04-14T16:38:40.332Z,5.05
2023-04-14T16:41:06.886Z,11.23
2023-04-14T16:43:33.351Z,6.55
2023-04-14T16:46:04.556Z,5.32
2023-04-14T16:48:32.779Z,8.23
2023-04-14T16:51:06.605Z,10.95
2023-04-14T16:53:33.297Z,3.80
2023-04-14T16:56:06.998Z,4.25
2023-04-14T16:58:34.789Z,3.90
2023-04-14T17:01:01.724Z,4.50
2023-04-14T17:03:28.852Z,4.40
2023-04-14T17:05:55.569Z,5.20
2023-04-14T17:08:22.323Z,4.18
2023-04-14T17:10:48.852Z,6.07
2023-04-14T17:13:15.579Z,4.85
2023-04-14T17:15:45.345Z,4.25
2023-04-14T17:18:11.943Z,4.07
2023-04-14T17:20:41.597Z,4.00
2023-04-14T17:23:10.020Z,4.30
2023-04-14T17:25:37.303Z,4.18
2023-04-14T17:28:04.641Z,4.75
2023-04-14T17:30:33.427Z,5.10
2023-04-14T17:33:00.907Z,4.95
2023-04-14T17:35:28.494Z,4.75
2023-04-14T17:37:55.949Z,5.00
2023-04-14T17:40:22.839Z,4.25
2023-04-14T17:42:49.309Z,4.07
2023-04-14T17:45:22.785Z,3.60
2023-04-14T17:47:50.928Z,5.70
2023-04-14T17:50:18.920Z,4.60
2023-04-14T17:52:46.566Z,5.22
2023-04-14T17:55:13.749Z,7.47
2023-04-14T17:57:40.184Z,5.07
2023-04-14T18:00:08.070Z,9.45
2023-04-14T18:02:39.603Z,5.95
2023-04-14T18:05:06.424Z,5.88
2023-04-14T18:07:34.665Z,4.82
2023-04-14T18:10:01.244Z,5.13
2023-04-14T18:12:27.835Z,6.03
2023-04-14T18:14:54.481Z,5.72
2023-04-14T18:17:22.281Z,5.57
2023-04-14T18:19:48.893Z,6.28
2023-04-14T18:22:15.624Z,6.25
2023-04-14T18:29:41.990Z,5.88
2023-04-14T18:32:09.269Z,5.57
2023-04-14T18:34:36.752Z,5.82
2023-04-14T18:37:03.975Z,6.20
2023-04-14T18:39:33.571Z,6.68
2023-04-14T18:42:00.714Z,5.10
2023-04-14T18:44:27.553Z,6.55
2023-04-14T18:46:55.186Z,6.00
2023-04-14T18:49:22.269Z,5.95
2023-04-14T18:51:49.282Z,6.93
2023-04-14T18:54:16.443Z,6.90
2023-04-14T18:56:43.665Z,7.20
2023-04-14T18:59:10.097Z,7.85
2023-04-14T19:01:36.982Z,8.38
2023-04-14T19:04:03.537Z,7.68
2023-04-14T19:06:30.720Z,8.13
2023-04-14T19:08:57.379Z,7.85
2023-04-14T19:11:23.866Z,7.78
2023-04-14T19:13:50.613Z,6.78
2023-04-14T19:16:17.181Z,6.68
2023-04-14T19:18:44.597Z,7.10
2023-04-14T19:21:12.260Z,7.38
2023-04-14T19:23:39.877Z,7.05
2023-04-14T19:26:08.101Z,7.53
2023-04-14T19:28:34.959Z,7.25
2023-04-14T19:31:02.910Z,7.70
2023-04-14T19:33:29.771Z,7.47
2023-04-14T19:35:57.209Z,7.30
2023-04-14T19:38:23.983Z,7.32
2023-04-14T19:40:50.671Z,7.03
2023-04-14T19:43:18.071Z,7.40
2023-04-14T19:45:54.471Z,7.53
2023-04-14T19:48:23.779Z,7.22
2023-04-14T19:50:54.672Z,8.23
2023-04-14T19:53:23.227Z,8.68
2023-04-14T19:55:53.605Z,9.10
2023-04-14T19:58:21.505Z,10.15
2023-04-14T20:00:49.406Z,10.45
2023-04-14T20:03:17.079Z,11.50
2023-04-14T20:05:49.780Z,10.73
2023-04-14T20:08:16.395Z,9.82
2023-04-14T20:10:43.029Z,9.20
2023-04-14T20:13:09.815Z,9.13
2023-04-14T20:15:39.661Z,9.18
2023-04-14T20:18:06.365Z,8.73
2023-04-14T20:20:33.359Z,8.27
2023-04-14T20:23:01.476Z,8.35
2023-04-14T20:25:28.040Z,8.43
2023-04-14T20:27:54.641Z,8.90
2023-04-14T20:30:22.692Z,9.30
2023-04-14T20:32:50.556Z,9.25
2023-04-14T20:35:17.002Z,9.00
2023-04-14T20:37:43.856Z,9.73
2023-04-14T20:40:10.521Z,8.70
2023-04-14T20:42:37.001Z,8.65
2023-04-14T20:45:03.626Z,8.32
2023-04-14T20:47:30.563Z,8.13
2023-04-14T20:49:57.222Z,8.23
2023-04-14T20:52:23.984Z,8.73
2023-04-14T20:54:50.505Z,7.88
2023-04-14T20:57:17.239Z,7.95
2023-04-14T20:59:44.571Z,8.32
2023-04-14T21:02:11.400Z,8.43
2023-04-14T21:04:38.173Z,8.52
2023-04-14T21:07:05.528Z,9.45
2023-04-14T21:09:32.762Z,9.70
2023-04-14T21:12:16.072Z,8.88
2023-04-14T21:15:40.104Z,9.00
2023-04-14T21:17:30.301Z,10.38
2023-04-14T21:19:56.851Z,10.50
2023-04-14T21:22:23.775Z,10.80
2023-04-14T21:24:50.789Z,9.98
2023-04-14T21:27:17.547Z,9.90
2023-04-14T21:29:44.529Z,9.75
2023-04-14T21:32:11.418Z,9.43
2023-04-14T21:34:37.934Z,10.10
2023-04-14T21:37:04.529Z,9.95
2023-04-14T21:39:33.224Z,9.57
2023-04-14T21:42:00.277Z,9.35
2023-04-14T21:44:27.290Z,9.70
2023-04-14T21:46:54.754Z,9.18
2023-04-14T21:49:21.360Z,9.35
2023-04-14T21:51:48.537Z,8.48
2023-04-14T21:54:14.992Z,8.00
2023-04-14T21:56:41.883Z,7.78
2023-04-14T21:59:08.547Z,7.72
2023-04-14T22:01:36.310Z,7.90
2023-04-14T22:04:03.546Z,7.63
2023-04-14T22:06:30.236Z,9.02
2023-04-14T22:08:56.792Z,8.38
2023-04-14T22:11:23.311Z,8.48
2023-04-14T22:13:49.861Z,7.93
2023-04-14T22:16:16.449Z,8.63
2023-04-14T22:18:43.076Z,9.18
2023-04-14T22:21:10.595Z,9.27
2023-04-14T22:23:38.560Z,8.48
2023-04-14T22:26:05.223Z,9.32
2023-04-14T22:28:31.702Z,9.02
2023-04-14T22:30:58.377Z,8.43
2023-04-14T22:33:24.834Z,9.25
2023-04-14T22:35:51.503Z,9.75
2023-04-14T22:38:17.934Z,8.95
2023-04-14T22:40:44.619Z,8.73
2023-04-14T22:43:11.315Z,9.32
2023-04-14T22:45:38.586Z,8.10
2023-04-14T22:48:06.244Z,8.32
2023-04-14T22:50:33.902Z,8.35
2023-04-14T22:53:00.857Z,8.50
2023-04-14T22:55:27.608Z,8.60
2023-04-14T22:57:54.207Z,8.57
2023-04-14T23:00:21.606Z,7.93
2023-04-14T23:02:48.760Z,8.43
2023-04-14T23:05:15.304Z,8.57
2023-04-14T23:07:41.939Z,8.15
2023-04-14T23:10:09.241Z,8.88
2023-04-14T23:12:36.251Z,8.90
2023-04-14T23:15:04.293Z,8.95
2023-04-14T23:17:30.998Z,8.68
2023-04-14T23:19:57.590Z,8.90
2023-04-14T23:22:24.606Z,8.65
2023-04-14T23:24:51.460Z,9.23
2023-04-14T23:27:18.146Z,8.90
2023-04-14T23:29:44.561Z,9.60
2023-04-14T23:32:11.720Z,9.57
2023-04-14T23:34:38.379Z,9.98
2023-04-14T23:37:05.053Z,9.98
2023-04-14T23:39:31.683Z,9.40
2023-04-14T23:41:58.239Z,10.18
2023-04-14T23:44:24.860Z,9.43
2023-04-14T23:46:51.788Z,10.18
2023-04-14T23:49:24.140Z,9.80
2023-04-14T23:51:59.462Z,10.20
2023-04-14T23:54:26.047Z,11.02
2023-04-14T23:56:52.623Z,10.82
2023-04-14T23:59:19.105Z,11.13
